Decoded Metar for LFOK (CHALONS in FRANCE) (IATA:N/A) | Meteo·Mobile Aviation Weather
aviador You're here:

LFOK Decoded Metar

CHALONS in FRANCE
Report Time2019-04-20 10:30:00
UTC Time2019-04-20 10:45:43
Flight Rules vfr VFR
Wind040° at 11 kt
W.Decomp.*RWY 10: 5.5 kt HW 9.5 kt LCW
Visibility9999 m
Phenomena:N/A
Clouds:N/A
Expected CloudBase > 5,200 ft AGL from Temp-Dew spread
CeilingNone
Temp21°C (ISA +7)
Dew Point08°C (43% RH)
AAT16.6°C
QNH1026 hPa
Density Alt1,066 ft
Elevation531 ft
Report Wrong Elevation
Raw Report
LFOK 201030Z AUTO 04011KT 9999 2900 NSC 21/08 Q1026 NOSIG=

Extra information for LFOK:More info

Metar Taf Metar & Taf Last 4 Metars F.Rules Stats Wind Profile Meteogram Temp Stats Airport Information Weather charts Add Link Nearby VenuesMetar ALERT Operation Metar Decoded Social comments